sensor_id;sensor_type;location;lat;lon;timestamp;P1;durP1;ratioP1;P2;durP2;ratioP2
62990;SDS011;49084;48.204;16.202;2022-09-16T00:01:19;3.92;;;3.03;;
62990;SDS011;49084;48.204;16.202;2022-09-16T00:03:46;5.38;;;3.20;;
62990;SDS011;49084;48.204;16.202;2022-09-16T00:06:16;5.97;;;4.07;;
62990;SDS011;49084;48.204;16.202;2022-09-16T00:08:42;5.53;;;4.28;;
62990;SDS011;49084;48.204;16.202;2022-09-16T00:11:09;5.22;;;4.43;;
62990;SDS011;49084;48.204;16.202;2022-09-16T00:13:35;5.85;;;3.75;;
62990;SDS011;49084;48.204;16.202;2022-09-16T00:16:05;5.10;;;4.60;;
62990;SDS011;49084;48.204;16.202;2022-09-16T00:18:32;6.28;;;4.32;;
62990;SDS011;49084;48.204;16.202;2022-09-16T00:20:58;6.60;;;4.25;;
62990;SDS011;49084;48.204;16.202;2022-09-16T00:23:23;7.28;;;4.20;;
62990;SDS011;49084;48.204;16.202;2022-09-16T00:25:52;8.93;;;4.63;;
62990;SDS011;49084;48.204;16.202;2022-09-16T00:28:20;5.72;;;4.35;;
62990;SDS011;49084;48.204;16.202;2022-09-16T00:30:46;8.63;;;4.10;;
62990;SDS011;49084;48.204;16.202;2022-09-16T00:33:12;7.57;;;4.28;;
62990;SDS011;49084;48.204;16.202;2022-09-16T00:35:38;7.50;;;4.63;;
62990;SDS011;49084;48.204;16.202;2022-09-16T00:38:04;8.20;;;4.43;;
62990;SDS011;49084;48.204;16.202;2022-09-16T00:40:30;8.30;;;4.30;;
62990;SDS011;49084;48.204;16.202;2022-09-16T00:42:56;7.68;;;4.30;;
62990;SDS011;49084;48.204;16.202;2022-09-16T00:45:24;7.22;;;4.60;;
62990;SDS011;49084;48.204;16.202;2022-09-16T00:48:02;9.32;;;4.13;;
62990;SDS011;49084;48.204;16.202;2022-09-16T00:50:42;8.07;;;4.85;;
62990;SDS011;49084;48.204;16.202;2022-09-16T00:53:16;7.53;;;4.32;;
62990;SDS011;49084;48.204;16.202;2022-09-16T00:55:50;4.47;;;4.15;;
62990;SDS011;49084;48.204;16.202;2022-09-16T00:58:25;5.18;;;4.65;;
62990;SDS011;49084;48.204;16.202;2022-09-16T01:01:05;5.15;;;3.90;;
62990;SDS011;49084;48.204;16.202;2022-09-16T01:03:37;7.65;;;4.97;;
62990;SDS011;49084;48.204;16.202;2022-09-16T01:06:08;4.25;;;3.90;;
62990;SDS011;49084;48.204;16.202;2022-09-16T01:08:35;6.88;;;4.15;;
62990;SDS011;49084;48.204;16.202;2022-09-16T01:11:01;5.30;;;4.68;;
62990;SDS011;49084;48.204;16.202;2022-09-16T01:13:27;6.32;;;3.92;;
62990;SDS011;49084;48.204;16.202;2022-09-16T01:35:14;6.03;;;3.78;;
62990;SDS011;49084;48.204;16.202;2022-09-16T01:37:47;6.25;;;3.72;;
62990;SDS011;49084;48.204;16.202;2022-09-16T01:40:23;4.40;;;4.00;;
62990;SDS011;49084;48.204;16.202;2022-09-16T01:51:01;10.18;;;4.72;;
62990;SDS011;49084;48.204;16.202;2022-09-16T01:53:33;4.93;;;4.38;;
62990;SDS011;49084;48.204;16.202;2022-09-16T01:56:07;5.90;;;4.78;;
62990;SDS011;49084;48.204;16.202;2022-09-16T01:58:47;8.35;;;4.78;;
62990;SDS011;49084;48.204;16.202;2022-09-16T02:01:18;7.85;;;4.50;;
62990;SDS011;49084;48.204;16.202;2022-09-16T02:03:53;8.63;;;4.28;;
62990;SDS011;49084;48.204;16.202;2022-09-16T02:06:23;9.32;;;4.85;;
62990;SDS011;49084;48.204;16.202;2022-09-16T02:08:53;5.25;;;4.70;;
62990;SDS011;49084;48.204;16.202;2022-09-16T02:11:22;5.13;;;4.20;;
62990;SDS011;49084;48.204;16.202;2022-09-16T02:13:50;6.28;;;4.28;;
62990;SDS011;49084;48.204;16.202;2022-09-16T02:16:44;7.75;;;4.15;;
62990;SDS011;49084;48.204;16.202;2022-09-16T02:19:16;9.35;;;4.70;;
62990;SDS011;49084;48.204;16.202;2022-09-16T02:21:46;6.40;;;4.82;;
62990;SDS011;49084;48.204;16.202;2022-09-16T02:24:16;11.68;;;4.90;;
62990;SDS011;49084;48.204;16.202;2022-09-16T02:26:45;11.20;;;4.97;;
62990;SDS011;49084;48.204;16.202;2022-09-16T02:29:18;6.63;;;4.65;;
62990;SDS011;49084;48.204;16.202;2022-09-16T02:31:46;8.35;;;5.43;;
62990;SDS011;49084;48.204;16.202;2022-09-16T02:34:14;7.85;;;5.20;;
62990;SDS011;49084;48.204;16.202;2022-09-16T02:36:44;8.63;;;5.45;;
62990;SDS011;49084;48.204;16.202;2022-09-16T02:39:17;7.57;;;5.28;;
62990;SDS011;49084;48.204;16.202;2022-09-16T02:41:48;9.55;;;5.22;;
62990;SDS011;49084;48.204;16.202;2022-09-16T02:44:14;6.05;;;4.78;;
62990;SDS011;49084;48.204;16.202;2022-09-16T02:49:44;6.70;;;5.10;;
62990;SDS011;49084;48.204;16.202;2022-09-16T02:52:21;7.32;;;5.22;;
62990;SDS011;49084;48.204;16.202;2022-09-16T02:57:28;9.10;;;5.57;;
62990;SDS011;49084;48.204;16.202;2022-09-16T02:59:54;7.55;;;5.18;;
62990;SDS011;49084;48.204;16.202;2022-09-16T03:02:20;8.32;;;5.53;;
62990;SDS011;49084;48.204;16.202;2022-09-16T03:04:46;5.97;;;5.47;;
62990;SDS011;49084;48.204;16.202;2022-09-16T03:07:12;8.00;;;7.20;;
62990;SDS011;49084;48.204;16.202;2022-09-16T03:09:41;7.38;;;6.10;;
62990;SDS011;49084;48.204;16.202;2022-09-16T03:12:19;9.18;;;6.28;;
62990;SDS011;49084;48.204;16.202;2022-09-16T03:17:48;9.13;;;6.18;;
62990;SDS011;49084;48.204;16.202;2022-09-16T03:28:19;7.57;;;5.93;;
62990;SDS011;49084;48.204;16.202;2022-09-16T03:31:06;8.40;;;6.72;;
62990;SDS011;49084;48.204;16.202;2022-09-16T03:33:40;12.38;;;6.82;;
62990;SDS011;49084;48.204;16.202;2022-09-16T03:36:27;9.68;;;7.03;;
62990;SDS011;49084;48.204;16.202;2022-09-16T03:38:58;8.05;;;7.20;;
62990;SDS011;49084;48.204;16.202;2022-09-16T03:41:27;10.93;;;6.68;;
62990;SDS011;49084;48.204;16.202;2022-09-16T03:43:54;7.32;;;6.38;;
62990;SDS011;49084;48.204;16.202;2022-09-16T03:46:21;11.27;;;6.53;;
62990;SDS011;49084;48.204;16.202;2022-09-16T03:48:47;8.60;;;7.03;;
62990;SDS011;49084;48.204;16.202;2022-09-16T03:51:13;6.95;;;6.18;;
62990;SDS011;49084;48.204;16.202;2022-09-16T03:53:39;7.95;;;6.75;;
62990;SDS011;49084;48.204;16.202;2022-09-16T03:56:05;10.38;;;6.60;;
62990;SDS011;49084;48.204;16.202;2022-09-16T03:58:31;11.52;;;6.70;;
62990;SDS011;49084;48.204;16.202;2022-09-16T04:00:57;8.85;;;6.80;;
62990;SDS011;49084;48.204;16.202;2022-09-16T04:03:22;7.40;;;5.90;;
62990;SDS011;49084;48.204;16.202;2022-09-16T04:05:52;8.75;;;6.40;;
62990;SDS011;49084;48.204;16.202;2022-09-16T04:08:18;8.98;;;6.22;;
62990;SDS011;49084;48.204;16.202;2022-09-16T04:10:57;8.93;;;6.57;;
62990;SDS011;49084;48.204;16.202;2022-09-16T04:13:25;7.97;;;6.43;;
62990;SDS011;49084;48.204;16.202;2022-09-16T04:15:53;11.15;;;6.55;;
62990;SDS011;49084;48.204;16.202;2022-09-16T04:18:19;8.02;;;5.90;;
62990;SDS011;49084;48.204;16.202;2022-09-16T04:20:44;10.45;;;6.78;;
62990;SDS011;49084;48.204;16.202;2022-09-16T04:23:10;9.65;;;6.80;;
62990;SDS011;49084;48.204;16.202;2022-09-16T04:25:36;10.38;;;6.35;;
62990;SDS011;49084;48.204;16.202;2022-09-16T04:28:02;9.30;;;7.10;;
62990;SDS011;49084;48.204;16.202;2022-09-16T04:30:27;9.65;;;6.53;;
62990;SDS011;49084;48.204;16.202;2022-09-16T04:32:53;15.93;;;7.40;;
62990;SDS011;49084;48.204;16.202;2022-09-16T04:35:20;8.77;;;6.20;;
62990;SDS011;49084;48.204;16.202;2022-09-16T04:37:46;10.38;;;7.30;;
62990;SDS011;49084;48.204;16.202;2022-09-16T04:40:11;8.00;;;7.20;;
62990;SDS011;49084;48.204;16.202;2022-09-16T04:42:37;8.57;;;6.85;;
62990;SDS011;49084;48.204;16.202;2022-09-16T04:45:03;9.70;;;6.47;;
62990;SDS011;49084;48.204;16.202;2022-09-16T04:47:29;6.90;;;6.20;;
62990;SDS011;49084;48.204;16.202;2022-09-16T04:49:55;12.30;;;6.30;;
62990;SDS011;49084;48.204;16.202;2022-09-16T04:52:20;8.35;;;5.70;;
62990;SDS011;49084;48.204;16.202;2022-09-16T04:54:46;7.47;;;5.72;;
62990;SDS011;49084;48.204;16.202;2022-09-16T04:57:12;7.28;;;5.10;;
62990;SDS011;49084;48.204;16.202;2022-09-16T04:59:37;13.40;;;6.15;;
62990;SDS011;49084;48.204;16.202;2022-09-16T05:02:03;6.82;;;5.40;;
62990;SDS011;49084;48.204;16.202;2022-09-16T05:04:29;8.30;;;5.53;;
62990;SDS011;49084;48.204;16.202;2022-09-16T05:06:54;11.40;;;6.57;;
62990;SDS011;49084;48.204;16.202;2022-09-16T05:09:20;7.88;;;6.07;;
62990;SDS011;49084;48.204;16.202;2022-09-16T05:11:46;7.80;;;5.40;;
62990;SDS011;49084;48.204;16.202;2022-09-16T05:14:13;11.10;;;6.30;;
62990;SDS011;49084;48.204;16.202;2022-09-16T05:16:41;6.43;;;5.82;;
62990;SDS011;49084;48.204;16.202;2022-09-16T05:19:09;9.43;;;5.38;;
62990;SDS011;49084;48.204;16.202;2022-09-16T05:21:36;8.93;;;6.75;;
62990;SDS011;49084;48.204;16.202;2022-09-16T05:24:04;7.95;;;6.15;;
62990;SDS011;49084;48.204;16.202;2022-09-16T05:26:35;8.02;;;5.82;;
62990;SDS011;49084;48.204;16.202;2022-09-16T05:29:03;7.88;;;5.88;;
62990;SDS011;49084;48.204;16.202;2022-09-16T05:31:31;8.13;;;6.03;;
62990;SDS011;49084;48.204;16.202;2022-09-16T05:34:00;8.93;;;6.13;;
62990;SDS011;49084;48.204;16.202;2022-09-16T05:36:27;8.80;;;6.63;;
62990;SDS011;49084;48.204;16.202;2022-09-16T05:38:54;9.70;;;7.35;;
62990;SDS011;49084;48.204;16.202;2022-09-16T05:41:20;8.90;;;6.50;;
62990;SDS011;49084;48.204;16.202;2022-09-16T05:43:47;10.93;;;7.07;;
62990;SDS011;49084;48.204;16.202;2022-09-16T05:46:17;7.47;;;6.50;;
62990;SDS011;49084;48.204;16.202;2022-09-16T05:48:44;8.10;;;7.00;;
62990;SDS011;49084;48.204;16.202;2022-09-16T05:51:10;10.60;;;6.70;;
62990;SDS011;49084;48.204;16.202;2022-09-16T05:53:39;9.40;;;7.20;;
62990;SDS011;49084;48.204;16.202;2022-09-16T05:58:40;6.38;;;5.80;;
62990;SDS011;49084;48.204;16.202;2022-09-16T06:03:38;9.13;;;5.55;;
62990;SDS011;49084;48.204;16.202;2022-09-16T06:08:51;11.65;;;6.13;;
62990;SDS011;49084;48.204;16.202;2022-09-16T06:11:18;8.57;;;5.70;;
62990;SDS011;49084;48.204;16.202;2022-09-16T06:13:44;8.88;;;5.55;;
62990;SDS011;49084;48.204;16.202;2022-09-16T06:16:10;10.52;;;4.65;;
62990;SDS011;49084;48.204;16.202;2022-09-16T06:18:38;7.68;;;4.85;;
62990;SDS011;49084;48.204;16.202;2022-09-16T06:21:13;11.15;;;5.28;;
62990;SDS011;49084;48.204;16.202;2022-09-16T06:23:39;6.60;;;4.18;;
62990;SDS011;49084;48.204;16.202;2022-09-16T06:26:06;5.35;;;4.85;;
62990;SDS011;49084;48.204;16.202;2022-09-16T06:33:33;8.52;;;4.65;;
62990;SDS011;49084;48.204;16.202;2022-09-16T06:36:06;9.82;;;4.25;;
62990;SDS011;49084;48.204;16.202;2022-09-16T06:38:36;7.07;;;4.97;;
62990;SDS011;49084;48.204;16.202;2022-09-16T06:41:04;6.32;;;3.78;;
62990;SDS011;49084;48.204;16.202;2022-09-16T06:43:30;9.05;;;4.43;;
62990;SDS011;49084;48.204;16.202;2022-09-16T06:45:57;4.63;;;3.80;;
62990;SDS011;49084;48.204;16.202;2022-09-16T06:48:24;7.15;;;3.85;;
62990;SDS011;49084;48.204;16.202;2022-09-16T06:50:58;8.13;;;3.55;;
62990;SDS011;49084;48.204;16.202;2022-09-16T06:53:28;7.72;;;3.88;;
62990;SDS011;49084;48.204;16.202;2022-09-16T06:55:54;9.20;;;3.78;;
62990;SDS011;49084;48.204;16.202;2022-09-16T06:58:23;4.55;;;3.58;;
62990;SDS011;49084;48.204;16.202;2022-09-16T07:00:49;9.52;;;4.30;;
62990;SDS011;49084;48.204;16.202;2022-09-16T07:03:15;5.75;;;3.92;;
62990;SDS011;49084;48.204;16.202;2022-09-16T07:05:41;5.43;;;3.60;;
62990;SDS011;49084;48.204;16.202;2022-09-16T07:08:06;7.15;;;2.95;;
62990;SDS011;49084;48.204;16.202;2022-09-16T07:10:32;4.88;;;2.95;;
62990;SDS011;49084;48.204;16.202;2022-09-16T07:12:58;8.13;;;2.80;;
62990;SDS011;49084;48.204;16.202;2022-09-16T07:15:24;4.38;;;2.78;;
62990;SDS011;49084;48.204;16.202;2022-09-16T07:17:53;5.25;;;2.50;;
62990;SDS011;49084;48.204;16.202;2022-09-16T07:20:21;8.07;;;2.83;;
62990;SDS011;49084;48.204;16.202;2022-09-16T07:22:47;4.93;;;2.40;;
62990;SDS011;49084;48.204;16.202;2022-09-16T07:25:15;8.45;;;2.70;;
62990;SDS011;49084;48.204;16.202;2022-09-16T07:27:40;4.57;;;2.15;;
62990;SDS011;49084;48.204;16.202;2022-09-16T07:30:07;5.80;;;2.50;;
62990;SDS011;49084;48.204;16.202;2022-09-16T07:32:32;3.50;;;2.42;;
62990;SDS011;49084;48.204;16.202;2022-09-16T07:34:58;2.60;;;2.30;;
62990;SDS011;49084;48.204;16.202;2022-09-16T07:37:24;5.22;;;2.83;;
62990;SDS011;49084;48.204;16.202;2022-09-16T07:39:49;3.55;;;2.55;;
62990;SDS011;49084;48.204;16.202;2022-09-16T07:42:15;4.35;;;2.10;;
62990;SDS011;49084;48.204;16.202;2022-09-16T07:44:41;4.57;;;2.20;;
62990;SDS011;49084;48.204;16.202;2022-09-16T07:47:06;4.50;;;2.40;;
62990;SDS011;49084;48.204;16.202;2022-09-16T07:49:32;6.55;;;2.50;;
62990;SDS011;49084;48.204;16.202;2022-09-16T07:51:57;4.65;;;2.30;;
62990;SDS011;49084;48.204;16.202;2022-09-16T07:54:24;5.85;;;2.65;;
62990;SDS011;49084;48.204;16.202;2022-09-16T07:56:49;6.68;;;2.67;;
62990;SDS011;49084;48.204;16.202;2022-09-16T07:59:16;4.63;;;2.30;;
62990;SDS011;49084;48.204;16.202;2022-09-16T08:01:43;3.47;;;2.30;;
62990;SDS011;49084;48.204;16.202;2022-09-16T08:04:08;4.07;;;2.95;;
62990;SDS011;49084;48.204;16.202;2022-09-16T08:06:36;4.75;;;3.22;;
62990;SDS011;49084;48.204;16.202;2022-09-16T08:09:02;4.72;;;2.75;;
62990;SDS011;49084;48.204;16.202;2022-09-16T08:11:29;6.32;;;2.88;;
62990;SDS011;49084;48.204;16.202;2022-09-16T08:13:56;6.30;;;3.30;;
62990;SDS011;49084;48.204;16.202;2022-09-16T08:16:23;7.22;;;2.70;;
62990;SDS011;49084;48.204;16.202;2022-09-16T08:18:50;2.90;;;2.22;;
62990;SDS011;49084;48.204;16.202;2022-09-16T08:21:19;2.63;;;2.42;;
62990;SDS011;49084;48.204;16.202;2022-09-16T08:23:46;4.03;;;2.03;;
62990;SDS011;49084;48.204;16.202;2022-09-16T08:26:12;2.78;;;1.75;;
62990;SDS011;49084;48.204;16.202;2022-09-16T08:28:41;3.78;;;2.00;;
62990;SDS011;49084;48.204;16.202;2022-09-16T08:31:08;3.85;;;2.17;;
62990;SDS011;49084;48.204;16.202;2022-09-16T08:33:34;4.22;;;1.92;;
62990;SDS011;49084;48.204;16.202;2022-09-16T08:36:03;2.92;;;1.83;;
62990;SDS011;49084;48.204;16.202;2022-09-16T08:38:32;5.28;;;2.40;;
62990;SDS011;49084;48.204;16.202;2022-09-16T08:41:00;4.70;;;2.20;;
62990;SDS011;49084;48.204;16.202;2022-09-16T08:43:36;4.13;;;2.40;;
62990;SDS011;49084;48.204;16.202;2022-09-16T08:46:19;5.35;;;2.00;;
62990;SDS011;49084;48.204;16.202;2022-09-16T08:48:51;3.00;;;1.95;;
62990;SDS011;49084;48.204;16.202;2022-09-16T08:51:27;5.00;;;1.67;;
62990;SDS011;49084;48.204;16.202;2022-09-16T08:54:03;4.30;;;2.05;;
62990;SDS011;49084;48.204;16.202;2022-09-16T08:56:34;5.00;;;1.80;;
62990;SDS011;49084;48.204;16.202;2022-09-16T08:59:03;2.53;;;1.80;;
62990;SDS011;49084;48.204;16.202;2022-09-16T09:01:40;4.55;;;2.40;;
62990;SDS011;49084;48.204;16.202;2022-09-16T09:04:13;5.15;;;1.90;;
62990;SDS011;49084;48.204;16.202;2022-09-16T09:14:55;3.40;;;2.58;;
62990;SDS011;49084;48.204;16.202;2022-09-16T09:20:44;7.45;;;3.20;;
62990;SDS011;49084;48.204;16.202;2022-09-16T09:26:21;5.75;;;2.88;;
62990;SDS011;49084;48.204;16.202;2022-09-16T09:34:19;4.40;;;2.90;;
62990;SDS011;49084;48.204;16.202;2022-09-16T09:39:59;7.32;;;2.88;;
62990;SDS011;49084;48.204;16.202;2022-09-16T09:42:38;6.00;;;3.40;;
62990;SDS011;49084;48.204;16.202;2022-09-16T09:45:22;5.55;;;3.40;;
62990;SDS011;49084;48.204;16.202;2022-09-16T09:48:00;5.10;;;3.58;;
62990;SDS011;49084;48.204;16.202;2022-09-16T09:50:39;7.82;;;4.03;;
62990;SDS011;49084;48.204;16.202;2022-09-16T09:55:37;15.98;;;5.32;;
62990;SDS011;49084;48.204;16.202;2022-09-16T09:58:16;9.52;;;3.80;;
62990;SDS011;49084;48.204;16.202;2022-09-16T10:00:44;7.57;;;4.57;;
62990;SDS011;49084;48.204;16.202;2022-09-16T10:03:13;10.38;;;4.10;;
62990;SDS011;49084;48.204;16.202;2022-09-16T10:05:41;5.82;;;4.20;;
62990;SDS011;49084;48.204;16.202;2022-09-16T10:10:55;5.28;;;4.40;;
62990;SDS011;49084;48.204;16.202;2022-09-16T10:13:23;6.33;;;5.00;;
62990;SDS011;49084;48.204;16.202;2022-09-16T10:16:05;9.20;;;5.05;;
62990;SDS011;49084;48.204;16.202;2022-09-16T10:18:34;8.05;;;5.82;;
62990;SDS011;49084;48.204;16.202;2022-09-16T10:21:05;7.03;;;5.72;;
62990;SDS011;49084;48.204;16.202;2022-09-16T10:23:33;10.27;;;6.15;;
62990;SDS011;49084;48.204;16.202;2022-09-16T10:28:52;9.55;;;6.07;;
62990;SDS011;49084;48.204;16.202;2022-09-16T10:31:24;11.35;;;6.03;;
62990;SDS011;49084;48.204;16.202;2022-09-16T10:33:51;9.53;;;6.03;;
62990;SDS011;49084;48.204;16.202;2022-09-16T10:36:18;7.07;;;5.53;;
62990;SDS011;49084;48.204;16.202;2022-09-16T10:38:51;9.68;;;6.00;;
62990;SDS011;49084;48.204;16.202;2022-09-16T10:52:07;8.00;;;5.38;;
62990;SDS011;49084;48.204;16.202;2022-09-16T10:54:39;8.32;;;5.10;;
62990;SDS011;49084;48.204;16.202;2022-09-16T10:57:18;9.45;;;5.13;;
62990;SDS011;49084;48.204;16.202;2022-09-16T11:10:58;6.13;;;4.50;;
62990;SDS011;49084;48.204;16.202;2022-09-16T11:14:06;5.40;;;4.35;;
62990;SDS011;49084;48.204;16.202;2022-09-16T11:25:20;10.88;;;4.70;;
62990;SDS011;49084;48.204;16.202;2022-09-16T11:28:15;6.93;;;4.60;;
62990;SDS011;49084;48.204;16.202;2022-09-16T11:33:40;6.00;;;3.83;;
62990;SDS011;49084;48.204;16.202;2022-09-16T11:38:57;6.78;;;4.47;;
62990;SDS011;49084;48.204;16.202;2022-09-16T11:50:15;5.55;;;3.10;;
62990;SDS011;49084;48.204;16.202;2022-09-16T11:55:58;4.47;;;3.40;;
62990;SDS011;49084;48.204;16.202;2022-09-16T11:58:36;9.73;;;3.20;;
62990;SDS011;49084;48.204;16.202;2022-09-16T12:01:10;5.55;;;3.15;;
62990;SDS011;49084;48.204;16.202;2022-09-16T12:04:10;5.75;;;2.60;;
62990;SDS011;49084;48.204;16.202;2022-09-16T12:06:49;7.47;;;3.47;;
62990;SDS011;49084;48.204;16.202;2022-09-16T12:09:38;3.80;;;2.80;;
62990;SDS011;49084;48.204;16.202;2022-09-16T12:12:16;5.28;;;2.95;;
62990;SDS011;49084;48.204;16.202;2022-09-16T12:14:50;7.22;;;2.72;;
62990;SDS011;49084;48.204;16.202;2022-09-16T12:17:23;4.63;;;2.80;;
62990;SDS011;49084;48.204;16.202;2022-09-16T12:22:48;4.45;;;2.60;;
62990;SDS011;49084;48.204;16.202;2022-09-16T12:31:12;3.78;;;2.88;;
62990;SDS011;49084;48.204;16.202;2022-09-16T12:33:41;4.28;;;2.70;;
62990;SDS011;49084;48.204;16.202;2022-09-16T12:36:29;2.90;;;2.55;;
62990;SDS011;49084;48.204;16.202;2022-09-16T12:38:58;4.25;;;2.35;;
62990;SDS011;49084;48.204;16.202;2022-09-16T12:44:02;3.67;;;2.88;;
62990;SDS011;49084;48.204;16.202;2022-09-16T12:50:05;3.00;;;2.65;;
62990;SDS011;49084;48.204;16.202;2022-09-16T13:01:29;3.03;;;2.45;;
62990;SDS011;49084;48.204;16.202;2022-09-16T13:04:02;4.53;;;2.85;;
62990;SDS011;49084;48.204;16.202;2022-09-16T13:06:47;4.47;;;2.63;;
62990;SDS011;49084;48.204;16.202;2022-09-16T13:09:20;3.97;;;2.83;;
62990;SDS011;49084;48.204;16.202;2022-09-16T13:11:59;5.82;;;2.92;;
62990;SDS011;49084;48.204;16.202;2022-09-16T13:14:45;3.33;;;2.90;;
62990;SDS011;49084;48.204;16.202;2022-09-16T13:17:11;4.43;;;2.92;;
62990;SDS011;49084;48.204;16.202;2022-09-16T13:19:50;3.42;;;2.95;;
62990;SDS011;49084;48.204;16.202;2022-09-16T13:22:31;3.75;;;2.53;;
62990;SDS011;49084;48.204;16.202;2022-09-16T13:30:35;4.35;;;2.42;;
62990;SDS011;49084;48.204;16.202;2022-09-16T13:33:23;4.30;;;2.85;;
62990;SDS011;49084;48.204;16.202;2022-09-16T13:36:00;2.85;;;2.55;;
62990;SDS011;49084;48.204;16.202;2022-09-16T13:38:39;4.70;;;2.47;;
62990;SDS011;49084;48.204;16.202;2022-09-16T13:43:58;2.90;;;2.53;;
62990;SDS011;49084;48.204;16.202;2022-09-16T13:51:42;3.00;;;2.50;;
62990;SDS011;49084;48.204;16.202;2022-09-16T14:15:41;4.07;;;2.13;;
62990;SDS011;49084;48.204;16.202;2022-09-16T14:18:11;2.55;;;2.28;;
62990;SDS011;49084;48.204;16.202;2022-09-16T14:20:49;5.82;;;2.65;;
62990;SDS011;49084;48.204;16.202;2022-09-16T14:23:17;3.28;;;2.50;;
62990;SDS011;49084;48.204;16.202;2022-09-16T14:25:43;6.20;;;2.42;;
62990;SDS011;49084;48.204;16.202;2022-09-16T14:28:14;5.07;;;2.67;;
62990;SDS011;49084;48.204;16.202;2022-09-16T14:30:58;5.30;;;2.40;;
62990;SDS011;49084;48.204;16.202;2022-09-16T14:35:51;2.88;;;2.28;;
62990;SDS011;49084;48.204;16.202;2022-09-16T14:38:19;3.00;;;2.20;;
62990;SDS011;49084;48.204;16.202;2022-09-16T14:40:48;3.40;;;2.55;;
62990;SDS011;49084;48.204;16.202;2022-09-16T14:43:16;4.68;;;2.40;;
62990;SDS011;49084;48.204;16.202;2022-09-16T14:45:48;2.63;;;2.42;;
62990;SDS011;49084;48.204;16.202;2022-09-16T14:48:17;3.50;;;2.35;;
62990;SDS011;49084;48.204;16.202;2022-09-16T14:50:46;5.93;;;2.72;;
62990;SDS011;49084;48.204;16.202;2022-09-16T14:58:19;3.10;;;2.30;;
62990;SDS011;49084;48.204;16.202;2022-09-16T15:00:47;3.58;;;2.40;;
62990;SDS011;49084;48.204;16.202;2022-09-16T15:05:51;4.03;;;2.83;;
62990;SDS011;49084;48.204;16.202;2022-09-16T15:08:30;4.00;;;2.50;;
62990;SDS011;49084;48.204;16.202;2022-09-16T15:11:00;4.30;;;2.78;;
62990;SDS011;49084;48.204;16.202;2022-09-16T15:13:29;4.72;;;2.55;;
62990;SDS011;49084;48.204;16.202;2022-09-16T15:16:34;5.32;;;2.58;;
62990;SDS011;49084;48.204;16.202;2022-09-16T15:18:57;2.50;;;2.30;;
62990;SDS011;49084;48.204;16.202;2022-09-16T15:21:29;5.22;;;3.10;;
62990;SDS011;49084;48.204;16.202;2022-09-16T15:23:58;6.05;;;2.45;;
62990;SDS011;49084;48.204;16.202;2022-09-16T15:26:28;2.50;;;2.20;;
62990;SDS011;49084;48.204;16.202;2022-09-16T15:31:46;3.88;;;2.47;;
62990;SDS011;49084;48.204;16.202;2022-09-16T15:36:49;5.30;;;2.97;;
62990;SDS011;49084;48.204;16.202;2022-09-16T15:39:24;3.40;;;2.85;;
62990;SDS011;49084;48.204;16.202;2022-09-16T15:42:10;4.88;;;3.17;;
62990;SDS011;49084;48.204;16.202;2022-09-16T15:44:37;8.45;;;3.95;;
62990;SDS011;49084;48.204;16.202;2022-09-16T15:49:59;5.32;;;3.20;;
62990;SDS011;49084;48.204;16.202;2022-09-16T15:52:33;5.88;;;2.83;;
62990;SDS011;49084;48.204;16.202;2022-09-16T15:55:27;6.72;;;3.03;;
62990;SDS011;49084;48.204;16.202;2022-09-16T15:58:42;4.95;;;2.97;;
62990;SDS011;49084;48.204;16.202;2022-09-16T16:06:09;4.32;;;2.78;;
62990;SDS011;49084;48.204;16.202;2022-09-16T16:11:13;3.95;;;3.00;;
62990;SDS011;49084;48.204;16.202;2022-09-16T16:13:41;3.20;;;2.90;;
62990;SDS011;49084;48.204;16.202;2022-09-16T16:16:08;6.88;;;3.78;;
62990;SDS011;49084;48.204;16.202;2022-09-16T16:18:35;5.93;;;3.70;;
62990;SDS011;49084;48.204;16.202;2022-09-16T16:21:05;4.38;;;3.33;;
62990;SDS011;49084;48.204;16.202;2022-09-16T16:23:32;5.18;;;3.42;;
62990;SDS011;49084;48.204;16.202;2022-09-16T16:25:59;7.40;;;3.38;;
62990;SDS011;49084;48.204;16.202;2022-09-16T16:28:25;4.53;;;3.22;;
62990;SDS011;49084;48.204;16.202;2022-09-16T16:30:51;6.25;;;3.42;;
62990;SDS011;49084;48.204;16.202;2022-09-16T16:33:17;7.28;;;3.30;;
62990;SDS011;49084;48.204;16.202;2022-09-16T16:35:42;4.70;;;3.25;;
62990;SDS011;49084;48.204;16.202;2022-09-16T16:38:08;6.28;;;3.63;;
62990;SDS011;49084;48.204;16.202;2022-09-16T16:40:34;6.57;;;3.40;;
62990;SDS011;49084;48.204;16.202;2022-09-16T16:43:00;8.70;;;3.65;;
62990;SDS011;49084;48.204;16.202;2022-09-16T16:45:26;7.63;;;4.18;;
62990;SDS011;49084;48.204;16.202;2022-09-16T16:47:51;8.40;;;5.00;;
62990;SDS011;49084;48.204;16.202;2022-09-16T16:50:17;9.43;;;5.65;;
62990;SDS011;49084;48.204;16.202;2022-09-16T16:52:43;6.75;;;5.57;;
62990;SDS011;49084;48.204;16.202;2022-09-16T16:55:08;10.75;;;6.57;;
62990;SDS011;49084;48.204;16.202;2022-09-16T16:57:34;7.47;;;5.63;;
62990;SDS011;49084;48.204;16.202;2022-09-16T17:00:00;8.60;;;7.53;;
62990;SDS011;49084;48.204;16.202;2022-09-16T17:02:26;18.45;;;8.27;;
62990;SDS011;49084;48.204;16.202;2022-09-16T17:04:51;9.63;;;7.53;;
62990;SDS011;49084;48.204;16.202;2022-09-16T17:07:17;11.18;;;7.60;;
62990;SDS011;49084;48.204;16.202;2022-09-16T17:09:42;15.35;;;8.43;;
62990;SDS011;49084;48.204;16.202;2022-09-16T17:12:08;12.57;;;8.55;;
62990;SDS011;49084;48.204;16.202;2022-09-16T17:14:34;15.35;;;10.02;;
62990;SDS011;49084;48.204;16.202;2022-09-16T17:17:00;12.77;;;8.93;;
62990;SDS011;49084;48.204;16.202;2022-09-16T17:19:27;15.30;;;9.07;;
62990;SDS011;49084;48.204;16.202;2022-09-16T17:21:53;14.18;;;7.97;;
62990;SDS011;49084;48.204;16.202;2022-09-16T17:24:20;10.15;;;7.47;;
62990;SDS011;49084;48.204;16.202;2022-09-16T17:26:46;13.27;;;8.27;;
62990;SDS011;49084;48.204;16.202;2022-09-16T17:29:12;9.57;;;7.72;;
62990;SDS011;49084;48.204;16.202;2022-09-16T17:31:38;12.63;;;8.02;;
62990;SDS011;49084;48.204;16.202;2022-09-16T17:34:06;10.07;;;8.18;;
62990;SDS011;49084;48.204;16.202;2022-09-16T17:36:38;11.73;;;6.75;;
62990;SDS011;49084;48.204;16.202;2022-09-16T17:39:08;10.75;;;6.57;;
62990;SDS011;49084;48.204;16.202;2022-09-16T17:41:37;11.50;;;7.20;;
62990;SDS011;49084;48.204;16.202;2022-09-16T17:44:04;9.02;;;6.70;;
62990;SDS011;49084;48.204;16.202;2022-09-16T17:46:31;14.80;;;6.20;;
62990;SDS011;49084;48.204;16.202;2022-09-16T17:49:00;8.45;;;5.32;;
62990;SDS011;49084;48.204;16.202;2022-09-16T17:51:28;3.70;;;3.15;;
62990;SDS011;49084;48.204;16.202;2022-09-16T17:53:55;5.38;;;3.67;;
62990;SDS011;49084;48.204;16.202;2022-09-16T17:56:21;7.82;;;3.22;;
62990;SDS011;49084;48.204;16.202;2022-09-16T17:58:47;2.38;;;2.17;;
62990;SDS011;49084;48.204;16.202;2022-09-16T18:01:16;3.88;;;2.58;;
62990;SDS011;49084;48.204;16.202;2022-09-16T18:03:45;9.88;;;2.60;;
62990;SDS011;49084;48.204;16.202;2022-09-16T18:06:19;4.88;;;2.60;;
62990;SDS011;49084;48.204;16.202;2022-09-16T18:08:47;4.72;;;2.85;;
62990;SDS011;49084;48.204;16.202;2022-09-16T18:11:14;4.65;;;3.03;;
62990;SDS011;49084;48.204;16.202;2022-09-16T18:13:41;7.70;;;3.90;;
62990;SDS011;49084;48.204;16.202;2022-09-16T18:18:35;3.03;;;2.72;;
62990;SDS011;49084;48.204;16.202;2022-09-16T18:21:03;5.90;;;2.95;;
62990;SDS011;49084;48.204;16.202;2022-09-16T18:23:30;8.90;;;2.58;;
62990;SDS011;49084;48.204;16.202;2022-09-16T18:25:56;2.95;;;2.72;;
62990;SDS011;49084;48.204;16.202;2022-09-16T18:28:28;3.65;;;2.83;;
62990;SDS011;49084;48.204;16.202;2022-09-16T18:31:00;8.25;;;3.10;;
62990;SDS011;49084;48.204;16.202;2022-09-16T18:33:30;6.90;;;3.60;;